Flight Track Log - Related Links

Times and Time Zones

All times are in EST time to prevent confusion due to time zone crossing. See the EJA941 flight status page for this flight to view local times or setup timezone preferences in your user account.

Time Position Orientation Groundspeed Altitude Reporting Facility
EST Latitude Longitude Course Direction KTS MPH feet Rate Location/Type
Mon 10:35:31 AM 38.1306 -85.7047 156° South 187 215 17,000  Level Indianapolis Center
Mon 10:36:33 AM 38.0756 -85.6389 137° Southeast 296 341 8,600 -2,829 Descending Indianapolis Center
Mon 10:37:34 AM 38.0817 -85.5100 87° East 364 419 11,200 2,634 Climbing Indianapolis Center
Mon 10:38:36 AM 38.0464 -85.3719 108° East 416 479 14,000 3,048 Climbing Indianapolis Center
Mon 10:39:38 AM 37.9542 -85.2831 143° Southeast 411 473 17,500 2,613 Climbing Indianapolis Center
Mon 10:40:00 AM 37.6723 -85.4534 156° South  Level Estimated
Mon 10:40:40 AM 37.8536 -85.2314 158° South 386 444 19,400  Level Indianapolis Center
Mon 10:41:00 AM 37.5719 -85.3973 156° South  Level Estimated
Mon 10:41:42 AM 37.7481 -85.1814 159° South 381 438 20,500  Level Indianapolis Center
Mon 10:42:44 AM 37.6444 -85.1350 160° South 392 451 21,900 1,403 Climbing Indianapolis Center
Mon 10:43:46 AM 37.5397 -85.0872 160° South 398 458 23,400 1,610 Climbing Indianapolis Center
Mon 10:44:47 AM 37.4178 -85.0306 160° South 400 460 25,200 1,610 Climbing Indianapolis Center
Mon 10:45:49 AM 37.3089 -84.9806 160° South 413 475 26,700 1,452 Climbing Indianapolis Center
Mon 10:46:51 AM 37.1997 -84.9300 160° South 417 480 28,200 1,452 Climbing Indianapolis Center
Mon 10:47:53 AM 37.0886 -84.8781 160° South 424 488 29,700 1,452 Climbing Indianapolis Center
Mon 10:48:55 AM 36.9675 -84.8228 160° South 439 505 31,200 1,561 Climbing Indianapolis Center
Mon 10:49:56 AM 36.8500 -84.7700 160° South 445 512 32,900 1,902 Climbing Indianapolis Center
Mon 10:50:58 AM 36.7328 -84.7156 160° South 448 516 35,100 2,274 Climbing Indianapolis Center
Mon 10:52:00 AM 36.6200 -84.6642 160° South 438 504 37,600 1,742 Climbing Indianapolis Center
Mon 10:53:02 AM 36.5072 -84.6142 160° South 430 495 38,700 919 Climbing Indianapolis Center
Mon 10:54:04 AM 36.3661 -84.5506 160° South 443 510 39,500 726 Climbing Indianapolis Center
Mon 10:55:06 AM 36.2450 -84.4956 160° South 455 524 40,200 634 Climbing Indianapolis Center
Mon 10:56:07 AM 36.1211 -84.4403 160° South 465 535 40,800 457 Climbing Indianapolis Center
Mon 10:56:51 AM 36.0411 -84.4058 161° South 462 532 41,000 115 Climbing Atlanta Center
Mon 10:57:51 AM 35.9119 -84.3464 160° South 481 554 41,000  Level Atlanta Center
Mon 10:58:51 AM 35.7806 -84.2922 162° South 492 566 41,000  Level Atlanta Center
Mon 10:59:51 AM 35.6492 -84.2331 160° South 497 572 41,000  Level Atlanta Center
Mon 11:00:51 AM 35.5158 -84.1739 160° South 503 579 41,000  Level Atlanta Center
Mon 11:01:51 AM 35.3803 -84.1153 161° South 503 579 41,000  Level Atlanta Center
Mon 11:02:51 AM 35.2508 -84.0592 161° South 503 579 41,000  Level Atlanta Center
Mon 11:03:51 AM 35.1153 -84.0006 161° South 508 585 41,000  Level Atlanta Center
Mon 11:04:51 AM 34.9817 -83.9400 160° South 508 585 41,000  Level Atlanta Center
Mon 11:05:51 AM 34.8336 -83.8717 159° South 508 585 41,000  Level Atlanta Center
Mon 11:06:51 AM 34.6997 -83.8139 160° South 508 585 41,000  Level Atlanta Center
Mon 11:07:51 AM 34.5661 -83.7589 161° South 508 585 41,000  Level Atlanta Center
Mon 11:08:51 AM 34.4450 -83.7064 160° South 508 585 41,000 100 Level Atlanta Center
Mon 11:09:51 AM 34.3092 -83.6489 161° South 513 590 41,200 450 Climbing Atlanta Center
Mon 11:10:51 AM 34.1753 -83.5919 161° South 513 590 41,900 750 Climbing Atlanta Center
Mon 11:11:51 AM 34.0458 -83.5375 161° South 502 578 42,700 550 Climbing Atlanta Center
Mon 11:12:51 AM 33.9161 -83.4831 161° South 496 571 43,000 150 Climbing Atlanta Center
Mon 11:13:51 AM 33.7739 -83.4264 162° South 496 571 43,000  Level Atlanta Center
Mon 11:14:51 AM 33.6400 -83.3725 161° South 496 571 43,000  Level Atlanta Center
Mon 11:15:51 AM 33.5103 -83.3189 161° South 501 577 43,000  Level Atlanta Center
Mon 11:16:51 AM 33.3764 -83.2653 162° South 506 582 43,000  Level Atlanta Center
Mon 11:17:51 AM 33.2425 -83.2092 161° South 507 583 43,000  Level Atlanta Center
Mon 11:18:51 AM 33.1147 -83.1533 160° South 502 578 43,000  Level Atlanta Center
Mon 11:19:51 AM 32.9975 -83.1050 161° South 496 571 43,000  Level Atlanta Center
Mon 11:20:51 AM 32.8678 -83.0497 160° South 496 571 43,000  Level Atlanta Center
Mon 11:21:51 AM 32.7378 -82.9967 161° South 496 571 43,000  Level Atlanta Center
Mon 11:22:51 AM 32.6036 -82.9417 161° South 496 571 43,000  Level Atlanta Center
Mon 11:23:51 AM 32.4717 -82.8867 161° South 501 577 43,000  Level Atlanta Center
Mon 11:25:33 AM 32.2311 -82.7894 161° South 503 579 43,000  Level Jacksonville Center
Mon 11:26:33 AM 32.1017 -82.7183 155° Southeast 503 579 43,000  Level Jacksonville Center
Mon 11:27:33 AM 31.9722 -82.6428 154° Southeast 508 585 43,000  Level Jacksonville Center
Mon 11:28:33 AM 31.8467 -82.5672 153° Southeast 515 593 43,000  Level Jacksonville Center
Mon 11:29:33 AM 31.7150 -82.4897 153° Southeast 515 593 43,000  Level Jacksonville Center
Mon 11:30:33 AM 31.5872 -82.4144 153° Southeast 510 587 43,000  Level Jacksonville Center
Mon 11:31:33 AM 31.4556 -82.3397 154° Southeast 510 587 43,000  Level Jacksonville Center
Mon 11:32:33 AM 31.3278 -82.2675 154° Southeast 510 587 43,000  Level Jacksonville Center
Mon 11:33:33 AM 31.1978 -82.1931 154° Southeast 510 587 43,000  Level Jacksonville Center
Mon 11:34:33 AM 31.0700 -82.1164 153° Southeast 510 587 43,000  Level Jacksonville Center
Mon 11:35:33 AM 30.9381 -82.0425 154° Southeast 510 587 43,000  Level Jacksonville Center
Mon 11:36:33 AM 30.8081 -81.9661 153° Southeast 510 587 43,000  Level Jacksonville Center
Mon 11:37:33 AM 30.6803 -81.8925 154° Southeast 510 587 43,000  Level Jacksonville Center
Mon 11:38:33 AM 30.5458 -81.8094 152° Southeast 510 587 43,000  Level Jacksonville Center
Mon 11:39:33 AM 30.4158 -81.7364 154° Southeast 529 609 43,000 -50 Level Jacksonville Center
Mon 11:40:33 AM 30.2961 -81.6656 153° Southeast 529 609 42,900  Descending Jacksonville Center
Mon 11:41:33 AM 30.1639 -81.5953 155° Southeast 529 609 43,000 50 Climbing Jacksonville Center
Mon 11:42:33 AM 30.0294 -81.5228 155° Southeast 529 609 43,000  Level Jacksonville Center
Mon 11:43:33 AM 29.8972 -81.4478 154° Southeast 529 609 43,000  Level Jacksonville Center
Mon 11:44:33 AM 29.7647 -81.3756 155° Southeast 529 609 43,000  Level Jacksonville Center
Mon 11:45:33 AM 29.6325 -81.3014 154° Southeast 529 609 43,000 -50 Level Jacksonville Center
Mon 11:46:33 AM 29.4978 -81.2294 155° Southeast 529 609 42,900 -550 Descending Jacksonville Center
Mon 11:47:33 AM 29.3653 -81.1508 153° Southeast 529 609 41,900 -1,150 Descending Jacksonville Center
Mon 11:48:33 AM 29.2489 -81.0386 140° Southeast 544 626 40,600 -1,400 Descending Jacksonville Center
Mon 11:49:33 AM 29.1486 -80.9003 130° Southeast 544 626 39,100 -1,903 Descending Jacksonville Center
Mon 11:50:58 AM 29.0083 -80.7128 131° Southeast 548 631 36,000 -1,283 Descending Miami Center
Mon 11:51:58 AM 28.8822 -80.5944 141° Southeast 542 624 36,000  Level Miami Center
Mon 11:52:58 AM 28.7606 -80.5383 158° South 524 603 36,000 -300 Level Miami Center
Mon 11:53:58 AM 28.6283 -80.4844 160° South 516 594 35,400 -1,650 Descending Miami Center
Mon 11:54:58 AM 28.4817 -80.4300 162° South 504 580 32,700 -2,200 Descending Miami Center
Mon 11:55:58 AM 28.3408 -80.3900 166° South 511 588 31,000 -1,600 Descending Miami Center
Mon 11:56:58 AM 28.1975 -80.3572 169° South 523 602 29,500 -1,800 Descending Miami Center
Mon 11:57:58 AM 28.0753 -80.3231 166° South 518 596 27,400 -2,550 Descending Miami Center
Mon 11:58:58 AM 27.9425 -80.2906 168° South 501 577 24,400 -3,000 Descending Miami Center
Mon 11:59:58 AM 27.8158 -80.2586 167° South 481 554 21,400 -2,950 Descending Miami Center
Mon 12:00:58 PM 27.6933 -80.2317 169° South 463 533 18,500 -2,850 Descending Miami Center
Mon 12:01:58 PM 27.5667 -80.1975 167° South 450 518 15,700 -2,550 Descending Miami Center
Mon 12:02:58 PM 27.4753 -80.1736 167° South 406 467 13,400 -2,250 Descending Miami Center
Mon 12:03:58 PM 27.3819 -80.1522 168° South 366 421 11,200 -1,950 Descending Miami Center
Mon 12:04:58 PM 27.2925 -80.1358 171° South 314 361 9,500 -1,800 Descending Miami Center
Mon 12:05:58 PM 27.2178 -80.1125 164° South 285 328 7,600 -1,700 Descending Miami Center
Mon 12:06:58 PM 27.1475 -80.0828 159° South 275 316 6,100 -1,000 Descending Miami Center
Mon 12:07:58 PM 27.0856 -80.0506 155° Southeast 275 316 5,600 -900 Descending Miami Center
Mon 12:08:58 PM 27.0092 -80.0136 157° South 275 316 4,300 -800 Descending Miami Center
Mon 12:09:58 PM 26.9422 -80.0142 180° South 252 290 4,000 -150 Descending Miami Center
Mon 12:10:58 PM 26.8872 -80.0522 212° Southwest 231 266 4,000 -600 Level Miami Center
Mon 12:11:58 PM 26.8383 -80.0906 215° Southwest 241 277 2,800 -1,200 Descending Miami Center
Mon 12:13:00 PM 26.7936 -80.2070 265° West  Level FlightAware Approximate
Mon 12:20:00 PM 26.6832 -80.0956 110° East  Level Estimated
Mon 12:21:00 PM 26.6832 -80.0956 110° East  Level Estimated
Mon 12:22:00 PM 26.6832 -80.0956 110° East  Level Estimated
Mon 12:23:00 PM 26.6832 -80.0956 110° East  Level Estimated
Mon 12:24:00 PM 26.6832 -80.0956 110° East  Level Estimated

Login

Don't have an account? Register now (free) for customized features, flight alerts, and more!